createdAt,value
2022-09-24T00:04:52.611Z,99149.09
2022-09-24T00:09:55.394Z,99147.33
2022-09-24T00:14:58.234Z,99144.39
2022-09-24T00:20:01.370Z,99140.23
2022-09-24T00:25:23.405Z,99142.52
2022-09-24T00:30:26.329Z,99135.79
2022-09-24T00:35:32.203Z,99133.71
2022-09-24T00:40:37.303Z,99133.48
2022-09-24T00:45:42.614Z,99134.75
2022-09-24T00:50:46.044Z,99135.02
2022-09-24T00:55:54.718Z,99130.60
2022-09-24T01:01:04.459Z,99124.80
2022-09-24T01:06:09.447Z,99121.11
2022-09-24T01:11:40.781Z,99120.51
2022-09-24T01:17:00.202Z,99113.20
2022-09-24T01:22:30.601Z,99103.98
2022-09-24T01:28:00.354Z,99101.27
2022-09-24T01:33:08.298Z,99097.59
2022-09-24T01:38:21.554Z,99092.75
2022-09-24T01:43:27.206Z,99091.36
2022-09-24T01:48:30.564Z,99093.63
2022-09-24T01:53:44.958Z,99093.83
2022-09-24T01:58:49.240Z,99095.85
2022-09-24T02:03:57.804Z,99097.56
2022-09-24T02:09:00.829Z,99095.97
2022-09-24T02:14:09.671Z,99097.46
2022-09-24T02:19:17.472Z,99102.55
2022-09-24T02:24:29.677Z,99105.50
2022-09-24T02:29:32.503Z,99100.83
2022-09-24T02:34:47.248Z,99094.61
2022-09-24T02:39:50.916Z,99095.13
2022-09-24T02:44:57.474Z,99094.21
2022-09-24T02:50:00.672Z,99089.07
2022-09-24T02:55:05.125Z,99082.58
2022-09-24T03:00:08.967Z,99080.26
2022-09-24T03:05:12.657Z,99072.08
2022-09-24T03:10:15.509Z,99069.14
2022-09-24T03:15:18.308Z,99068.63
2022-09-24T03:20:21.749Z,99071.45
2022-09-24T03:25:25.872Z,99073.19
2022-09-24T03:30:47.025Z,99067.08
2022-09-24T03:35:49.843Z,99057.88
2022-09-24T03:40:53.256Z,99055.00
2022-09-24T03:45:56.191Z,99055.98
2022-09-24T03:51:14.138Z,99056.21
2022-09-24T03:56:17.090Z,99059.04
2022-09-24T04:01:22.020Z,99062.36
2022-09-24T04:06:27.135Z,99057.97
2022-09-24T04:11:29.941Z,99063.41
2022-09-24T04:16:33.029Z,99064.14
2022-09-24T04:21:36.217Z,99063.88
2022-09-24T04:26:39.121Z,99066.06
2022-09-24T04:31:42.033Z,99059.58
2022-09-24T04:36:44.878Z,99057.60
2022-09-24T04:41:48.040Z,99055.42
2022-09-24T04:46:50.927Z,99056.19
2022-09-24T04:51:53.709Z,99054.36
2022-09-24T04:56:56.569Z,99056.64
2022-09-24T05:01:59.520Z,99053.23
2022-09-24T05:07:02.398Z,99053.12
2022-09-24T05:12:05.937Z,99052.52
2022-09-24T05:17:08.696Z,99046.39
2022-09-24T05:22:11.725Z,99051.67
2022-09-24T05:27:14.502Z,99040.47
2022-09-24T05:32:19.965Z,99035.23
2022-09-24T05:37:22.796Z,99032.08
2022-09-24T05:42:25.757Z,99036.94
2022-09-24T05:47:28.641Z,99040.60
2022-09-24T05:52:31.529Z,99038.08
2022-09-24T05:57:34.552Z,99044.48
2022-09-24T06:02:37.480Z,99043.63
2022-09-24T06:07:40.352Z,99048.83
2022-09-24T06:12:44.051Z,99042.42
2022-09-24T06:17:47.234Z,99042.80
2022-09-24T06:22:50.698Z,99043.59
2022-09-24T06:28:00.461Z,99043.05
2022-09-24T06:33:14.039Z,99052.23
2022-09-24T06:38:18.527Z,99050.96
2022-09-24T06:43:21.438Z,99048.79
2022-09-24T06:48:25.022Z,99054.37
2022-09-24T06:53:27.993Z,99051.45
2022-09-24T06:58:31.084Z,99054.39
2022-09-24T07:03:34.640Z,99056.32
2022-09-24T07:08:38.295Z,99057.71
2022-09-24T07:13:41.170Z,99053.98
2022-09-24T07:18:44.044Z,99054.84
2022-09-24T07:23:47.490Z,99058.89
2022-09-24T07:28:50.342Z,99059.45
2022-09-24T07:33:53.603Z,99068.52
2022-09-24T07:38:56.523Z,99067.98
2022-09-24T07:43:59.346Z,99069.92
2022-09-24T07:49:02.393Z,99065.30
2022-09-24T07:54:06.450Z,99066.30
2022-09-24T07:59:11.332Z,99068.02
2022-09-24T08:04:14.337Z,99067.70
2022-09-24T08:09:17.375Z,99062.33
2022-09-24T08:14:20.498Z,99062.50
2022-09-24T08:19:23.377Z,99063.96
2022-09-24T08:24:26.355Z,99066.14
2022-09-24T08:29:29.142Z,99065.72
2022-09-24T08:34:38.416Z,99060.13
2022-09-24T08:39:41.271Z,99057.83
2022-09-24T08:45:04.618Z,99062.69
2022-09-24T08:50:17.550Z,99063.73
2022-09-24T08:55:25.920Z,99067.23
2022-09-24T09:00:36.426Z,99063.98
2022-09-24T09:05:49.636Z,99053.73
2022-09-24T09:10:58.695Z,99051.53
2022-09-24T09:16:07.116Z,99048.19
2022-09-24T09:21:24.595Z,99044.13
2022-09-24T09:26:28.019Z,99035.35
2022-09-24T09:31:40.044Z,99031.18
2022-09-24T09:37:14.048Z,99032.22
2022-09-24T09:42:36.495Z,99025.70
2022-09-24T09:47:51.016Z,99020.77
2022-09-24T09:52:54.892Z,99015.67
2022-09-24T09:58:16.092Z,99012.39
2022-09-24T10:03:26.376Z,99011.30
2022-09-24T10:08:30.205Z,99001.92
2022-09-24T10:13:33.675Z,98993.70
2022-09-24T10:18:43.542Z,98987.50
2022-09-24T10:23:50.311Z,98986.46
2022-09-24T10:29:12.020Z,98980.98
2022-09-24T10:34:29.055Z,98978.05
2022-09-24T10:39:31.972Z,98975.20
2022-09-24T10:44:37.228Z,98973.76
2022-09-24T10:50:01.418Z,98976.05
2022-09-24T10:55:15.210Z,98969.94
2022-09-24T11:00:28.611Z,98966.48
2022-09-24T11:05:57.265Z,98967.61
2022-09-24T11:11:09.729Z,98966.44
2022-09-24T11:16:39.141Z,98965.44
2022-09-24T11:22:38.927Z,98960.45
2022-09-24T11:28:01.307Z,98956.55
2022-09-24T11:33:26.349Z,98955.54
2022-09-24T11:39:04.801Z,98951.73
2022-09-24T11:44:28.722Z,98942.85
2022-09-24T11:50:11.246Z,98940.59
2022-09-24T11:55:22.181Z,98936.77
2022-09-24T12:00:32.515Z,98932.34
2022-09-24T12:05:39.624Z,98934.16
2022-09-24T12:10:51.520Z,98934.77
2022-09-24T12:16:03.667Z,98932.55
2022-09-24T12:21:13.233Z,98930.66
2022-09-24T12:26:17.854Z,98929.21
2022-09-24T12:31:47.104Z,98925.80
2022-09-24T12:37:11.761Z,98921.00
2022-09-24T12:42:17.296Z,98919.66
2022-09-24T12:47:25.912Z,98915.38
2022-09-24T12:52:36.600Z,98911.38
2022-09-24T12:57:42.705Z,98908.91
2022-09-24T13:02:47.864Z,98908.85
2022-09-24T13:08:24.834Z,98898.30
2022-09-24T13:13:30.890Z,98898.77
2022-09-24T13:18:36.115Z,98894.42
2022-09-24T13:23:49.754Z,98892.77
2022-09-24T13:29:01.622Z,98889.64
2022-09-24T13:34:10.453Z,98882.98
2022-09-24T13:39:34.703Z,98879.67
2022-09-24T13:44:43.887Z,98870.41
2022-09-24T13:49:50.378Z,98862.48
2022-09-24T13:54:57.214Z,98848.13
2022-09-24T14:00:16.415Z,98849.80
2022-09-24T14:05:20.067Z,98847.73
2022-09-24T14:10:25.295Z,98843.59
2022-09-24T14:15:28.309Z,98835.73
2022-09-24T14:20:35.441Z,98840.33
2022-09-24T14:25:39.923Z,98833.23
2022-09-24T14:30:55.328Z,98829.53
2022-09-24T14:35:59.480Z,98831.09
2022-09-24T14:41:25.163Z,98831.89
2022-09-24T14:46:48.836Z,98838.30
2022-09-24T14:51:55.303Z,98834.09
2022-09-24T14:57:10.974Z,98836.33
2022-09-24T15:02:19.920Z,98837.13
2022-09-24T15:07:30.121Z,98835.05
2022-09-24T15:12:36.624Z,98834.88
2022-09-24T15:17:39.618Z,98833.36
2022-09-24T15:22:42.606Z,98838.48
2022-09-24T15:27:45.862Z,98832.88
2022-09-24T15:32:50.175Z,98833.64
2022-09-24T15:37:53.142Z,98829.88
2022-09-24T15:42:56.185Z,98826.63
2022-09-24T15:47:59.155Z,98827.26
2022-09-24T15:53:02.593Z,98820.83
2022-09-24T15:58:15.812Z,98820.77
2022-09-24T16:03:30.254Z,98818.70
2022-09-24T16:08:33.171Z,98817.55
2022-09-24T16:13:36.266Z,98815.33
2022-09-24T16:18:40.833Z,98818.50
2022-09-24T16:23:43.839Z,98823.20
2022-09-24T16:28:47.614Z,98823.67
2022-09-24T16:33:50.542Z,98829.05
2022-09-24T16:38:53.387Z,98831.42
2022-09-24T16:43:57.010Z,98834.63
2022-09-24T16:48:59.945Z,98838.70
2022-09-24T16:54:03.081Z,98833.95
2022-09-24T16:59:06.230Z,98835.00
2022-09-24T17:04:09.806Z,98833.20
2022-09-24T17:09:31.610Z,98837.94
2022-09-24T17:14:37.624Z,98841.70
2022-09-24T17:19:40.588Z,98844.70
2022-09-24T17:24:43.793Z,98840.84
2022-09-24T17:29:47.920Z,98847.40
2022-09-24T17:34:50.896Z,98849.39
2022-09-24T17:39:53.709Z,98847.52
2022-09-24T17:44:56.585Z,98848.17
2022-09-24T17:50:00.151Z,98851.45
2022-09-24T17:55:08.485Z,98853.96
2022-09-24T18:00:11.742Z,98851.48
2022-09-24T18:05:14.846Z,98842.05
2022-09-24T18:10:20.365Z,98841.73
2022-09-24T18:15:23.168Z,98843.08
2022-09-24T18:20:26.386Z,98849.91
2022-09-24T18:25:29.418Z,98853.73
2022-09-24T18:30:32.793Z,98850.86
2022-09-24T18:35:35.665Z,98845.59
2022-09-24T18:40:38.712Z,98847.11
2022-09-24T18:45:41.809Z,98842.73
2022-09-24T18:50:45.203Z,98847.36
2022-09-24T18:55:48.091Z,98848.77
2022-09-24T19:00:51.421Z,98855.43
2022-09-24T19:05:56.453Z,98860.27
2022-09-24T19:11:14.473Z,98862.72
2022-09-24T19:16:19.619Z,98869.77
2022-09-24T19:21:26.037Z,98873.30
2022-09-24T19:26:32.290Z,98879.02
2022-09-24T19:31:38.222Z,98877.34
2022-09-24T19:36:44.928Z,98875.68
2022-09-24T19:41:53.086Z,98871.90
2022-09-24T19:46:56.166Z,98869.54
2022-09-24T19:51:58.970Z,98868.25
2022-09-24T19:57:01.870Z,98872.59
2022-09-24T20:02:04.888Z,98874.00
2022-09-24T20:07:08.277Z,98876.86
2022-09-24T20:12:17.070Z,98879.65
2022-09-24T20:17:19.902Z,98880.90
2022-09-24T20:22:23.247Z,98880.54
2022-09-24T20:27:44.873Z,98882.97
2022-09-24T20:32:48.422Z,98886.63
2022-09-24T20:37:51.458Z,98888.73
2022-09-24T20:42:54.280Z,98887.50
2022-09-24T20:47:57.388Z,98888.35
2022-09-24T20:53:00.260Z,98886.33
2022-09-24T20:58:03.305Z,98885.90
2022-09-24T21:03:25.669Z,98881.55
2022-09-24T21:08:37.662Z,98880.13
2022-09-24T21:13:43.903Z,98879.31
2022-09-24T21:18:47.802Z,98880.25
2022-09-24T21:23:53.568Z,98880.27
2022-09-24T21:29:01.121Z,98874.02
2022-09-24T21:34:06.931Z,98873.55
2022-09-24T21:39:23.194Z,98869.98
2022-09-24T21:44:26.275Z,98863.70
2022-09-24T21:49:29.826Z,98865.59
2022-09-24T21:54:35.959Z,98872.58
2022-09-24T21:59:57.373Z,98879.20
2022-09-24T22:05:01.682Z,98876.44
2022-09-24T22:10:05.529Z,98870.30
2022-09-24T22:15:08.547Z,98872.24
2022-09-24T22:20:11.409Z,98868.96
2022-09-24T22:25:14.365Z,98873.68
2022-09-24T22:30:17.427Z,98874.20
2022-09-24T22:35:43.250Z,98873.20
2022-09-24T22:40:46.566Z,98873.21
2022-09-24T22:45:49.456Z,98866.76
2022-09-24T22:50:52.971Z,98866.70
2022-09-24T22:56:06.186Z,98866.05
2022-09-24T23:01:21.699Z,98865.78
2022-09-24T23:06:24.871Z,98872.25
2022-09-24T23:11:33.389Z,98874.48
2022-09-24T23:16:37.695Z,98874.22
2022-09-24T23:21:41.670Z,98874.55
2022-09-24T23:26:45.098Z,98874.05
2022-09-24T23:31:48.313Z,98875.85
2022-09-24T23:36:51.104Z,98874.30
2022-09-24T23:41:54.061Z,98870.30
2022-09-24T23:46:57.665Z,98866.83
2022-09-24T23:52:00.677Z,98869.22
2022-09-24T23:57:06.959Z,98862.66
